sensor_id;sensor_type;location;lat;lon;timestamp;P1;durP1;ratioP1;P2;durP2;ratioP2
18443;SDS011;9350;53.176;8.194;2023-05-19T00:00:54;10.05;;;4.45;;
18443;SDS011;9350;53.176;8.194;2023-05-19T00:03:22;5.82;;;4.15;;
18443;SDS011;9350;53.176;8.194;2023-05-19T00:05:51;8.30;;;4.75;;
18443;SDS011;9350;53.176;8.194;2023-05-19T00:08:19;11.38;;;4.75;;
18443;SDS011;9350;53.176;8.194;2023-05-19T00:10:48;7.55;;;4.07;;
18443;SDS011;9350;53.176;8.194;2023-05-19T00:13:17;10.75;;;4.72;;
18443;SDS011;9350;53.176;8.194;2023-05-19T00:15:45;10.05;;;4.63;;
18443;SDS011;9350;53.176;8.194;2023-05-19T00:18:12;6.00;;;4.18;;
18443;SDS011;9350;53.176;8.194;2023-05-19T00:20:40;8.98;;;4.32;;
18443;SDS011;9350;53.176;8.194;2023-05-19T00:23:07;6.18;;;4.30;;
18443;SDS011;9350;53.176;8.194;2023-05-19T00:25:34;6.80;;;3.92;;
18443;SDS011;9350;53.176;8.194;2023-05-19T00:28:01;9.95;;;4.60;;
18443;SDS011;9350;53.176;8.194;2023-05-19T00:30:30;8.10;;;4.80;;
18443;SDS011;9350;53.176;8.194;2023-05-19T00:32:57;7.30;;;4.13;;
18443;SDS011;9350;53.176;8.194;2023-05-19T00:35:23;13.88;;;5.28;;
18443;SDS011;9350;53.176;8.194;2023-05-19T00:37:50;8.73;;;4.80;;
18443;SDS011;9350;53.176;8.194;2023-05-19T00:40:17;10.63;;;4.85;;
18443;SDS011;9350;53.176;8.194;2023-05-19T00:42:44;9.35;;;4.28;;
18443;SDS011;9350;53.176;8.194;2023-05-19T00:45:11;7.13;;;4.15;;
18443;SDS011;9350;53.176;8.194;2023-05-19T00:47:39;8.98;;;4.63;;
18443;SDS011;9350;53.176;8.194;2023-05-19T00:50:06;10.18;;;4.93;;
18443;SDS011;9350;53.176;8.194;2023-05-19T00:52:33;6.95;;;4.20;;
18443;SDS011;9350;53.176;8.194;2023-05-19T00:54:59;10.23;;;4.90;;
18443;SDS011;9350;53.176;8.194;2023-05-19T00:57:26;9.55;;;4.80;;
18443;SDS011;9350;53.176;8.194;2023-05-19T00:59:53;5.32;;;4.55;;
18443;SDS011;9350;53.176;8.194;2023-05-19T01:02:20;5.80;;;4.55;;
18443;SDS011;9350;53.176;8.194;2023-05-19T01:04:49;7.57;;;4.72;;
18443;SDS011;9350;53.176;8.194;2023-05-19T01:07:17;8.98;;;4.68;;
18443;SDS011;9350;53.176;8.194;2023-05-19T01:09:45;9.02;;;4.68;;
18443;SDS011;9350;53.176;8.194;2023-05-19T01:12:12;8.32;;;4.90;;
18443;SDS011;9350;53.176;8.194;2023-05-19T01:14:39;9.07;;;5.18;;
18443;SDS011;9350;53.176;8.194;2023-05-19T01:17:08;7.82;;;4.70;;
18443;SDS011;9350;53.176;8.194;2023-05-19T01:19:46;7.65;;;5.00;;
18443;SDS011;9350;53.176;8.194;2023-05-19T01:22:29;7.47;;;4.95;;
18443;SDS011;9350;53.176;8.194;2023-05-19T01:28:34;8.63;;;4.60;;
18443;SDS011;9350;53.176;8.194;2023-05-19T01:31:17;9.93;;;4.47;;
18443;SDS011;9350;53.176;8.194;2023-05-19T01:33:48;7.65;;;4.47;;
18443;SDS011;9350;53.176;8.194;2023-05-19T01:36:18;5.53;;;4.38;;
18443;SDS011;9350;53.176;8.194;2023-05-19T01:38:47;7.70;;;4.63;;
18443;SDS011;9350;53.176;8.194;2023-05-19T01:41:16;7.18;;;4.60;;
18443;SDS011;9350;53.176;8.194;2023-05-19T01:43:44;8.32;;;5.00;;
18443;SDS011;9350;53.176;8.194;2023-05-19T01:46:11;8.52;;;4.80;;
18443;SDS011;9350;53.176;8.194;2023-05-19T01:48:40;10.90;;;5.20;;
18443;SDS011;9350;53.176;8.194;2023-05-19T01:51:07;8.75;;;4.93;;
18443;SDS011;9350;53.176;8.194;2023-05-19T01:53:34;9.95;;;5.57;;
18443;SDS011;9350;53.176;8.194;2023-05-19T01:56:01;6.90;;;4.95;;
18443;SDS011;9350;53.176;8.194;2023-05-19T01:58:30;10.05;;;5.70;;
18443;SDS011;9350;53.176;8.194;2023-05-19T02:01:07;8.32;;;5.30;;
18443;SDS011;9350;53.176;8.194;2023-05-19T02:03:44;10.40;;;5.30;;
18443;SDS011;9350;53.176;8.194;2023-05-19T02:06:23;9.18;;;5.60;;
18443;SDS011;9350;53.176;8.194;2023-05-19T02:09:01;9.52;;;4.80;;
18443;SDS011;9350;53.176;8.194;2023-05-19T02:11:34;7.63;;;5.40;;
18443;SDS011;9350;53.176;8.194;2023-05-19T02:14:04;7.43;;;5.15;;
18443;SDS011;9350;53.176;8.194;2023-05-19T02:16:40;8.77;;;5.30;;
18443;SDS011;9350;53.176;8.194;2023-05-19T02:19:19;8.50;;;5.00;;
18443;SDS011;9350;53.176;8.194;2023-05-19T02:21:47;9.68;;;5.50;;
18443;SDS011;9350;53.176;8.194;2023-05-19T02:24:14;9.55;;;5.28;;
18443;SDS011;9350;53.176;8.194;2023-05-19T02:26:41;9.90;;;5.13;;
18443;SDS011;9350;53.176;8.194;2023-05-19T02:29:09;9.05;;;5.38;;
18443;SDS011;9350;53.176;8.194;2023-05-19T02:31:35;8.93;;;5.35;;
18443;SDS011;9350;53.176;8.194;2023-05-19T02:34:02;7.30;;;4.82;;
18443;SDS011;9350;53.176;8.194;2023-05-19T02:36:31;7.78;;;5.13;;
18443;SDS011;9350;53.176;8.194;2023-05-19T02:38:59;11.48;;;5.50;;
18443;SDS011;9350;53.176;8.194;2023-05-19T02:41:26;7.78;;;4.88;;
18443;SDS011;9350;53.176;8.194;2023-05-19T02:43:52;9.85;;;5.15;;
18443;SDS011;9350;53.176;8.194;2023-05-19T02:46:19;7.20;;;4.80;;
18443;SDS011;9350;53.176;8.194;2023-05-19T02:48:46;6.82;;;4.95;;
18443;SDS011;9350;53.176;8.194;2023-05-19T02:51:13;8.13;;;5.05;;
18443;SDS011;9350;53.176;8.194;2023-05-19T02:53:41;8.23;;;5.22;;
18443;SDS011;9350;53.176;8.194;2023-05-19T02:56:07;6.43;;;4.65;;
18443;SDS011;9350;53.176;8.194;2023-05-19T02:58:35;9.25;;;4.93;;
18443;SDS011;9350;53.176;8.194;2023-05-19T03:01:02;7.95;;;4.95;;
18443;SDS011;9350;53.176;8.194;2023-05-19T03:03:28;7.78;;;4.72;;
18443;SDS011;9350;53.176;8.194;2023-05-19T03:05:56;6.72;;;4.55;;
18443;SDS011;9350;53.176;8.194;2023-05-19T03:08:23;10.93;;;4.93;;
18443;SDS011;9350;53.176;8.194;2023-05-19T03:10:51;8.82;;;5.32;;
18443;SDS011;9350;53.176;8.194;2023-05-19T03:13:18;7.35;;;5.07;;
18443;SDS011;9350;53.176;8.194;2023-05-19T03:15:45;7.22;;;4.93;;
18443;SDS011;9350;53.176;8.194;2023-05-19T03:18:14;6.07;;;4.50;;
18443;SDS011;9350;53.176;8.194;2023-05-19T03:20:41;8.52;;;5.10;;
18443;SDS011;9350;53.176;8.194;2023-05-19T03:23:08;5.97;;;5.00;;
18443;SDS011;9350;53.176;8.194;2023-05-19T03:25:35;7.68;;;4.32;;
18443;SDS011;9350;53.176;8.194;2023-05-19T03:28:04;9.18;;;5.22;;
18443;SDS011;9350;53.176;8.194;2023-05-19T03:30:30;5.35;;;3.92;;
18443;SDS011;9350;53.176;8.194;2023-05-19T03:32:57;8.95;;;4.63;;
18443;SDS011;9350;53.176;8.194;2023-05-19T03:35:25;5.82;;;4.93;;
18443;SDS011;9350;53.176;8.194;2023-05-19T03:37:52;5.40;;;4.53;;
18443;SDS011;9350;53.176;8.194;2023-05-19T03:40:19;5.88;;;4.25;;
18443;SDS011;9350;53.176;8.194;2023-05-19T03:42:46;8.00;;;5.15;;
18443;SDS011;9350;53.176;8.194;2023-05-19T03:45:15;6.32;;;4.50;;
18443;SDS011;9350;53.176;8.194;2023-05-19T03:47:41;8.40;;;5.25;;
18443;SDS011;9350;53.176;8.194;2023-05-19T03:50:08;11.25;;;5.03;;
18443;SDS011;9350;53.176;8.194;2023-05-19T03:52:36;9.50;;;5.05;;
18443;SDS011;9350;53.176;8.194;2023-05-19T03:55:04;9.13;;;4.65;;
18443;SDS011;9350;53.176;8.194;2023-05-19T03:57:31;10.50;;;5.13;;
18443;SDS011;9350;53.176;8.194;2023-05-19T03:59:58;6.93;;;4.47;;
18443;SDS011;9350;53.176;8.194;2023-05-19T04:02:26;7.65;;;4.97;;
18443;SDS011;9350;53.176;8.194;2023-05-19T04:04:53;12.25;;;5.60;;
18443;SDS011;9350;53.176;8.194;2023-05-19T04:07:20;6.03;;;4.97;;
18443;SDS011;9350;53.176;8.194;2023-05-19T04:09:46;5.63;;;4.75;;
18443;SDS011;9350;53.176;8.194;2023-05-19T04:12:13;8.38;;;5.10;;
18443;SDS011;9350;53.176;8.194;2023-05-19T04:14:40;7.22;;;4.68;;
18443;SDS011;9350;53.176;8.194;2023-05-19T04:17:07;9.35;;;5.32;;
18443;SDS011;9350;53.176;8.194;2023-05-19T04:19:35;8.55;;;4.45;;
18443;SDS011;9350;53.176;8.194;2023-05-19T04:22:02;8.80;;;4.68;;
18443;SDS011;9350;53.176;8.194;2023-05-19T04:24:29;7.18;;;4.75;;
18443;SDS011;9350;53.176;8.194;2023-05-19T04:26:56;8.07;;;5.00;;
18443;SDS011;9350;53.176;8.194;2023-05-19T04:29:26;11.25;;;4.65;;
18443;SDS011;9350;53.176;8.194;2023-05-19T04:31:53;11.45;;;5.03;;
18443;SDS011;9350;53.176;8.194;2023-05-19T04:34:21;7.30;;;5.00;;
18443;SDS011;9350;53.176;8.194;2023-05-19T04:36:49;9.38;;;5.00;;
18443;SDS011;9350;53.176;8.194;2023-05-19T04:39:16;8.50;;;5.15;;
18443;SDS011;9350;53.176;8.194;2023-05-19T04:41:42;8.63;;;4.72;;
18443;SDS011;9350;53.176;8.194;2023-05-19T04:44:09;7.85;;;5.22;;
18443;SDS011;9350;53.176;8.194;2023-05-19T04:46:37;9.32;;;4.95;;
18443;SDS011;9350;53.176;8.194;2023-05-19T04:49:04;8.07;;;5.03;;
18443;SDS011;9350;53.176;8.194;2023-05-19T04:51:31;9.48;;;5.43;;
18443;SDS011;9350;53.176;8.194;2023-05-19T04:54:01;8.70;;;5.50;;
18443;SDS011;9350;53.176;8.194;2023-05-19T04:56:27;10.48;;;5.53;;
18443;SDS011;9350;53.176;8.194;2023-05-19T04:58:54;10.60;;;6.18;;
18443;SDS011;9350;53.176;8.194;2023-05-19T05:01:21;14.30;;;5.93;;
18443;SDS011;9350;53.176;8.194;2023-05-19T05:03:50;13.38;;;5.80;;
18443;SDS011;9350;53.176;8.194;2023-05-19T05:06:19;10.55;;;5.53;;
18443;SDS011;9350;53.176;8.194;2023-05-19T05:08:46;7.60;;;5.00;;
18443;SDS011;9350;53.176;8.194;2023-05-19T05:11:14;8.23;;;5.53;;
18443;SDS011;9350;53.176;8.194;2023-05-19T05:13:41;15.27;;;6.20;;
18443;SDS011;9350;53.176;8.194;2023-05-19T05:16:09;11.98;;;5.78;;
18443;SDS011;9350;53.176;8.194;2023-05-19T05:18:37;14.43;;;6.07;;
18443;SDS011;9350;53.176;8.194;2023-05-19T05:21:05;10.27;;;5.97;;
18443;SDS011;9350;53.176;8.194;2023-05-19T05:23:32;11.15;;;5.68;;
18443;SDS011;9350;53.176;8.194;2023-05-19T05:25:59;12.05;;;6.55;;
18443;SDS011;9350;53.176;8.194;2023-05-19T05:28:35;10.25;;;6.18;;
18443;SDS011;9350;53.176;8.194;2023-05-19T05:31:01;10.48;;;6.25;;
18443;SDS011;9350;53.176;8.194;2023-05-19T05:33:28;10.77;;;6.25;;
18443;SDS011;9350;53.176;8.194;2023-05-19T05:35:55;10.35;;;5.95;;
18443;SDS011;9350;53.176;8.194;2023-05-19T05:38:22;14.82;;;5.90;;
18443;SDS011;9350;53.176;8.194;2023-05-19T05:40:49;8.63;;;5.72;;
18443;SDS011;9350;53.176;8.194;2023-05-19T05:43:16;14.95;;;5.85;;
18443;SDS011;9350;53.176;8.194;2023-05-19T05:45:44;17.25;;;6.18;;
18443;SDS011;9350;53.176;8.194;2023-05-19T05:48:11;12.70;;;5.70;;
18443;SDS011;9350;53.176;8.194;2023-05-19T05:50:38;13.80;;;6.45;;
18443;SDS011;9350;53.176;8.194;2023-05-19T05:53:07;10.75;;;5.72;;
18443;SDS011;9350;53.176;8.194;2023-05-19T05:55:39;14.25;;;5.75;;
18443;SDS011;9350;53.176;8.194;2023-05-19T05:58:06;13.85;;;5.60;;
18443;SDS011;9350;53.176;8.194;2023-05-19T06:00:35;11.43;;;5.50;;
18443;SDS011;9350;53.176;8.194;2023-05-19T06:03:03;10.55;;;4.82;;
18443;SDS011;9350;53.176;8.194;2023-05-19T06:05:29;10.77;;;4.97;;
18443;SDS011;9350;53.176;8.194;2023-05-19T06:07:56;11.00;;;5.18;;
18443;SDS011;9350;53.176;8.194;2023-05-19T06:10:23;16.40;;;5.10;;
18443;SDS011;9350;53.176;8.194;2023-05-19T06:12:50;9.75;;;4.70;;
18443;SDS011;9350;53.176;8.194;2023-05-19T06:15:17;10.43;;;4.68;;
18443;SDS011;9350;53.176;8.194;2023-05-19T06:17:43;15.35;;;5.28;;
18443;SDS011;9350;53.176;8.194;2023-05-19T06:20:12;10.40;;;4.45;;
18443;SDS011;9350;53.176;8.194;2023-05-19T06:22:39;9.85;;;4.07;;
18443;SDS011;9350;53.176;8.194;2023-05-19T06:25:06;9.27;;;3.88;;
18443;SDS011;9350;53.176;8.194;2023-05-19T06:27:33;11.10;;;3.80;;
18443;SDS011;9350;53.176;8.194;2023-05-19T06:30:00;12.13;;;4.32;;
18443;SDS011;9350;53.176;8.194;2023-05-19T06:32:27;12.38;;;3.78;;
18443;SDS011;9350;53.176;8.194;2023-05-19T06:34:54;10.52;;;4.07;;
18443;SDS011;9350;53.176;8.194;2023-05-19T06:37:22;10.48;;;3.78;;
18443;SDS011;9350;53.176;8.194;2023-05-19T06:39:50;9.45;;;4.10;;
18443;SDS011;9350;53.176;8.194;2023-05-19T06:42:18;9.75;;;3.85;;
18443;SDS011;9350;53.176;8.194;2023-05-19T06:44:46;12.30;;;5.18;;
18443;SDS011;9350;53.176;8.194;2023-05-19T06:47:13;10.20;;;4.20;;
18443;SDS011;9350;53.176;8.194;2023-05-19T06:49:41;8.40;;;3.92;;
18443;SDS011;9350;53.176;8.194;2023-05-19T06:52:09;7.72;;;3.70;;
18443;SDS011;9350;53.176;8.194;2023-05-19T06:54:37;7.65;;;4.45;;
18443;SDS011;9350;53.176;8.194;2023-05-19T06:57:04;9.52;;;3.70;;
18443;SDS011;9350;53.176;8.194;2023-05-19T06:59:31;7.60;;;4.10;;
18443;SDS011;9350;53.176;8.194;2023-05-19T07:01:57;7.53;;;3.83;;
18443;SDS011;9350;53.176;8.194;2023-05-19T07:04:26;6.80;;;3.88;;
18443;SDS011;9350;53.176;8.194;2023-05-19T07:06:53;9.68;;;4.00;;
18443;SDS011;9350;53.176;8.194;2023-05-19T07:09:19;10.95;;;4.00;;
18443;SDS011;9350;53.176;8.194;2023-05-19T07:11:47;7.45;;;3.88;;
18443;SDS011;9350;53.176;8.194;2023-05-19T07:14:14;9.98;;;4.05;;
18443;SDS011;9350;53.176;8.194;2023-05-19T07:16:41;8.73;;;4.47;;
18443;SDS011;9350;53.176;8.194;2023-05-19T07:19:08;8.70;;;3.72;;
18443;SDS011;9350;53.176;8.194;2023-05-19T07:21:35;8.65;;;4.30;;
18443;SDS011;9350;53.176;8.194;2023-05-19T07:24:02;11.00;;;3.95;;
18443;SDS011;9350;53.176;8.194;2023-05-19T07:26:29;8.82;;;3.97;;
18443;SDS011;9350;53.176;8.194;2023-05-19T07:28:57;9.60;;;3.92;;
18443;SDS011;9350;53.176;8.194;2023-05-19T07:31:23;7.70;;;3.63;;
18443;SDS011;9350;53.176;8.194;2023-05-19T07:33:50;9.73;;;3.90;;
18443;SDS011;9350;53.176;8.194;2023-05-19T07:36:17;11.85;;;3.85;;
18443;SDS011;9350;53.176;8.194;2023-05-19T07:38:44;8.52;;;3.78;;
18443;SDS011;9350;53.176;8.194;2023-05-19T07:41:11;9.60;;;3.30;;
18443;SDS011;9350;53.176;8.194;2023-05-19T07:43:38;17.27;;;4.00;;
18443;SDS011;9350;53.176;8.194;2023-05-19T07:46:06;6.88;;;3.83;;
18443;SDS011;9350;53.176;8.194;2023-05-19T07:48:33;7.40;;;3.10;;
18443;SDS011;9350;53.176;8.194;2023-05-19T07:51:00;7.93;;;3.50;;
18443;SDS011;9350;53.176;8.194;2023-05-19T07:53:27;10.65;;;3.47;;
18443;SDS011;9350;53.176;8.194;2023-05-19T07:55:54;12.13;;;3.42;;
18443;SDS011;9350;53.176;8.194;2023-05-19T07:58:21;9.75;;;3.17;;
18443;SDS011;9350;53.176;8.194;2023-05-19T08:00:48;7.22;;;3.28;;
18443;SDS011;9350;53.176;8.194;2023-05-19T08:03:16;10.43;;;4.00;;
18443;SDS011;9350;53.176;8.194;2023-05-19T08:05:43;6.18;;;3.20;;
18443;SDS011;9350;53.176;8.194;2023-05-19T08:08:09;9.90;;;3.20;;
18443;SDS011;9350;53.176;8.194;2023-05-19T08:10:36;8.18;;;3.10;;
18443;SDS011;9350;53.176;8.194;2023-05-19T08:13:03;8.95;;;3.10;;
18443;SDS011;9350;53.176;8.194;2023-05-19T08:15:30;13.48;;;4.47;;
18443;SDS011;9350;53.176;8.194;2023-05-19T08:17:57;10.25;;;4.00;;
18443;SDS011;9350;53.176;8.194;2023-05-19T08:20:25;9.63;;;3.47;;
18443;SDS011;9350;53.176;8.194;2023-05-19T08:22:52;12.45;;;4.47;;
18443;SDS011;9350;53.176;8.194;2023-05-19T08:25:19;4.88;;;3.13;;
18443;SDS011;9350;53.176;8.194;2023-05-19T08:27:46;6.60;;;3.17;;
18443;SDS011;9350;53.176;8.194;2023-05-19T08:30:13;9.75;;;3.90;;
18443;SDS011;9350;53.176;8.194;2023-05-19T08:32:39;8.80;;;4.10;;
18443;SDS011;9350;53.176;8.194;2023-05-19T08:35:07;6.28;;;3.70;;
18443;SDS011;9350;53.176;8.194;2023-05-19T08:37:35;10.10;;;3.92;;
18443;SDS011;9350;53.176;8.194;2023-05-19T08:40:02;10.05;;;3.85;;
18443;SDS011;9350;53.176;8.194;2023-05-19T08:42:30;11.40;;;3.90;;
18443;SDS011;9350;53.176;8.194;2023-05-19T08:44:57;7.15;;;3.28;;
18443;SDS011;9350;53.176;8.194;2023-05-19T08:47:24;9.13;;;3.65;;
18443;SDS011;9350;53.176;8.194;2023-05-19T08:49:52;7.50;;;3.45;;
18443;SDS011;9350;53.176;8.194;2023-05-19T08:52:26;10.20;;;3.92;;
18443;SDS011;9350;53.176;8.194;2023-05-19T08:55:03;11.35;;;4.20;;
18443;SDS011;9350;53.176;8.194;2023-05-19T08:57:35;8.57;;;4.35;;
18443;SDS011;9350;53.176;8.194;2023-05-19T09:00:03;11.45;;;3.72;;
18443;SDS011;9350;53.176;8.194;2023-05-19T09:02:33;10.35;;;3.17;;
18443;SDS011;9350;53.176;8.194;2023-05-19T09:05:01;7.20;;;3.20;;
18443;SDS011;9350;53.176;8.194;2023-05-19T09:07:29;14.18;;;3.72;;
18443;SDS011;9350;53.176;8.194;2023-05-19T09:09:58;7.32;;;3.00;;
18443;SDS011;9350;53.176;8.194;2023-05-19T09:12:27;8.15;;;2.83;;
18443;SDS011;9350;53.176;8.194;2023-05-19T09:14:54;13.65;;;3.70;;
18443;SDS011;9350;53.176;8.194;2023-05-19T09:17:21;10.48;;;3.38;;
18443;SDS011;9350;53.176;8.194;2023-05-19T09:19:49;7.07;;;3.08;;
18443;SDS011;9350;53.176;8.194;2023-05-19T09:22:16;14.52;;;3.45;;
18443;SDS011;9350;53.176;8.194;2023-05-19T09:24:44;10.02;;;3.40;;
18443;SDS011;9350;53.176;8.194;2023-05-19T09:27:13;8.73;;;3.13;;
18443;SDS011;9350;53.176;8.194;2023-05-19T09:29:41;9.25;;;3.08;;
18443;SDS011;9350;53.176;8.194;2023-05-19T09:32:08;6.55;;;3.08;;
18443;SDS011;9350;53.176;8.194;2023-05-19T09:34:38;6.80;;;3.40;;
18443;SDS011;9350;53.176;8.194;2023-05-19T09:37:06;9.18;;;3.17;;
18443;SDS011;9350;53.176;8.194;2023-05-19T09:39:33;9.48;;;3.28;;
18443;SDS011;9350;53.176;8.194;2023-05-19T09:42:02;6.57;;;2.67;;
18443;SDS011;9350;53.176;8.194;2023-05-19T09:44:30;11.20;;;3.03;;
18443;SDS011;9350;53.176;8.194;2023-05-19T09:46:59;10.60;;;3.63;;
18443;SDS011;9350;53.176;8.194;2023-05-19T09:49:26;8.82;;;2.97;;
18443;SDS011;9350;53.176;8.194;2023-05-19T09:51:55;13.13;;;3.33;;
18443;SDS011;9350;53.176;8.194;2023-05-19T09:54:22;8.88;;;3.60;;
18443;SDS011;9350;53.176;8.194;2023-05-19T09:56:55;8.52;;;2.85;;
18443;SDS011;9350;53.176;8.194;2023-05-19T09:59:23;10.00;;;3.03;;
18443;SDS011;9350;53.176;8.194;2023-05-19T10:01:52;7.45;;;2.97;;
18443;SDS011;9350;53.176;8.194;2023-05-19T10:04:22;8.55;;;2.60;;
18443;SDS011;9350;53.176;8.194;2023-05-19T10:06:51;9.13;;;3.00;;
18443;SDS011;9350;53.176;8.194;2023-05-19T10:09:19;7.13;;;2.90;;
18443;SDS011;9350;53.176;8.194;2023-05-19T10:11:49;10.13;;;3.30;;
18443;SDS011;9350;53.176;8.194;2023-05-19T10:14:18;9.40;;;3.17;;
18443;SDS011;9350;53.176;8.194;2023-05-19T10:16:47;8.85;;;3.05;;
18443;SDS011;9350;53.176;8.194;2023-05-19T10:19:15;5.68;;;2.70;;
18443;SDS011;9350;53.176;8.194;2023-05-19T10:21:46;5.88;;;2.75;;
18443;SDS011;9350;53.176;8.194;2023-05-19T10:24:13;4.22;;;2.38;;
18443;SDS011;9350;53.176;8.194;2023-05-19T10:26:42;7.15;;;2.72;;
18443;SDS011;9350;53.176;8.194;2023-05-19T10:29:10;8.82;;;2.67;;
18443;SDS011;9350;53.176;8.194;2023-05-19T10:31:39;7.00;;;2.75;;
18443;SDS011;9350;53.176;8.194;2023-05-19T10:34:13;5.82;;;2.83;;
18443;SDS011;9350;53.176;8.194;2023-05-19T10:36:59;5.72;;;2.60;;
18443;SDS011;9350;53.176;8.194;2023-05-19T10:39:36;8.30;;;2.80;;
18443;SDS011;9350;53.176;8.194;2023-05-19T10:42:09;9.05;;;2.90;;
18443;SDS011;9350;53.176;8.194;2023-05-19T10:44:45;7.05;;;2.80;;
18443;SDS011;9350;53.176;8.194;2023-05-19T10:47:22;6.35;;;2.85;;
18443;SDS011;9350;53.176;8.194;2023-05-19T10:49:50;7.85;;;2.53;;
18443;SDS011;9350;53.176;8.194;2023-05-19T10:52:19;9.52;;;2.47;;
18443;SDS011;9350;53.176;8.194;2023-05-19T10:54:47;5.15;;;2.42;;
18443;SDS011;9350;53.176;8.194;2023-05-19T10:57:15;7.13;;;2.50;;
18443;SDS011;9350;53.176;8.194;2023-05-19T10:59:42;4.43;;;1.92;;
18443;SDS011;9350;53.176;8.194;2023-05-19T11:02:09;3.50;;;2.25;;
18443;SDS011;9350;53.176;8.194;2023-05-19T11:04:58;7.70;;;2.47;;
18443;SDS011;9350;53.176;8.194;2023-05-19T11:07:33;10.05;;;2.47;;
18443;SDS011;9350;53.176;8.194;2023-05-19T11:10:04;11.48;;;2.13;;
18443;SDS011;9350;53.176;8.194;2023-05-19T11:12:38;7.03;;;2.28;;
18443;SDS011;9350;53.176;8.194;2023-05-19T11:15:07;6.03;;;2.22;;
18443;SDS011;9350;53.176;8.194;2023-05-19T11:17:36;2.40;;;1.65;;
18443;SDS011;9350;53.176;8.194;2023-05-19T11:20:08;6.57;;;2.50;;
18443;SDS011;9350;53.176;8.194;2023-05-19T11:22:59;5.70;;;1.92;;
18443;SDS011;9350;53.176;8.194;2023-05-19T11:25:43;6.45;;;1.98;;
18443;SDS011;9350;53.176;8.194;2023-05-19T11:28:11;8.05;;;2.75;;
18443;SDS011;9350;53.176;8.194;2023-05-19T11:30:40;4.35;;;2.15;;
18443;SDS011;9350;53.176;8.194;2023-05-19T11:33:08;6.38;;;1.95;;
18443;SDS011;9350;53.176;8.194;2023-05-19T11:35:37;4.30;;;2.00;;
18443;SDS011;9350;53.176;8.194;2023-05-19T11:38:04;3.65;;;1.65;;
18443;SDS011;9350;53.176;8.194;2023-05-19T11:40:32;4.20;;;2.03;;
18443;SDS011;9350;53.176;8.194;2023-05-19T11:42:58;5.47;;;1.77;;
18443;SDS011;9350;53.176;8.194;2023-05-19T11:45:26;5.30;;;1.88;;
18443;SDS011;9350;53.176;8.194;2023-05-19T11:48:10;4.65;;;1.80;;
18443;SDS011;9350;53.176;8.194;2023-05-19T11:50:40;5.22;;;2.00;;
18443;SDS011;9350;53.176;8.194;2023-05-19T11:53:07;9.48;;;2.03;;
18443;SDS011;9350;53.176;8.194;2023-05-19T11:55:40;8.52;;;2.03;;
18443;SDS011;9350;53.176;8.194;2023-05-19T12:01:31;5.32;;;1.90;;
18443;SDS011;9350;53.176;8.194;2023-05-19T12:07:26;2.83;;;2.00;;
18443;SDS011;9350;53.176;8.194;2023-05-19T12:09:53;6.05;;;1.90;;
18443;SDS011;9350;53.176;8.194;2023-05-19T12:12:22;6.53;;;1.92;;
18443;SDS011;9350;53.176;8.194;2023-05-19T12:17:47;6.78;;;1.73;;
18443;SDS011;9350;53.176;8.194;2023-05-19T12:20:15;5.82;;;1.70;;
18443;SDS011;9350;53.176;8.194;2023-05-19T12:29:13;5.03;;;1.70;;
18443;SDS011;9350;53.176;8.194;2023-05-19T12:31:39;3.50;;;1.75;;
18443;SDS011;9350;53.176;8.194;2023-05-19T12:34:06;5.38;;;1.77;;
18443;SDS011;9350;53.176;8.194;2023-05-19T12:36:33;4.07;;;1.90;;
18443;SDS011;9350;53.176;8.194;2023-05-19T12:39:00;4.70;;;1.90;;
18443;SDS011;9350;53.176;8.194;2023-05-19T12:41:30;5.32;;;1.75;;
18443;SDS011;9350;53.176;8.194;2023-05-19T12:43:57;2.92;;;1.67;;
18443;SDS011;9350;53.176;8.194;2023-05-19T12:46:25;4.32;;;2.00;;
18443;SDS011;9350;53.176;8.194;2023-05-19T12:48:51;6.03;;;1.85;;
18443;SDS011;9350;53.176;8.194;2023-05-19T12:51:24;4.97;;;1.75;;
18443;SDS011;9350;53.176;8.194;2023-05-19T12:53:51;7.30;;;1.85;;
18443;SDS011;9350;53.176;8.194;2023-05-19T12:56:18;4.78;;;1.58;;
18443;SDS011;9350;53.176;8.194;2023-05-19T12:58:45;2.25;;;1.65;;
18443;SDS011;9350;53.176;8.194;2023-05-19T13:01:14;5.55;;;1.70;;
18443;SDS011;9350;53.176;8.194;2023-05-19T13:03:43;7.45;;;2.00;;
18443;SDS011;9350;53.176;8.194;2023-05-19T13:06:10;5.53;;;1.77;;
18443;SDS011;9350;53.176;8.194;2023-05-19T13:08:37;9.43;;;1.60;;
18443;SDS011;9350;53.176;8.194;2023-05-19T13:11:04;6.93;;;2.00;;
18443;SDS011;9350;53.176;8.194;2023-05-19T13:13:31;2.90;;;1.50;;
18443;SDS011;9350;53.176;8.194;2023-05-19T13:15:58;5.13;;;1.42;;
18443;SDS011;9350;53.176;8.194;2023-05-19T13:18:25;5.30;;;1.98;;
18443;SDS011;9350;53.176;8.194;2023-05-19T13:20:57;5.10;;;1.60;;
18443;SDS011;9350;53.176;8.194;2023-05-19T13:23:24;3.40;;;1.98;;
18443;SDS011;9350;53.176;8.194;2023-05-19T13:25:51;3.95;;;1.90;;
18443;SDS011;9350;53.176;8.194;2023-05-19T13:28:17;2.90;;;1.98;;
18443;SDS011;9350;53.176;8.194;2023-05-19T13:30:44;5.63;;;1.70;;
18443;SDS011;9350;53.176;8.194;2023-05-19T13:33:12;4.43;;;1.52;;
18443;SDS011;9350;53.176;8.194;2023-05-19T13:35:39;3.88;;;1.63;;
18443;SDS011;9350;53.176;8.194;2023-05-19T13:38:07;3.47;;;1.58;;
18443;SDS011;9350;53.176;8.194;2023-05-19T13:40:35;3.85;;;1.70;;
18443;SDS011;9350;53.176;8.194;2023-05-19T13:43:02;6.38;;;1.70;;
18443;SDS011;9350;53.176;8.194;2023-05-19T13:45:29;7.80;;;1.75;;
18443;SDS011;9350;53.176;8.194;2023-05-19T13:47:56;5.93;;;2.25;;
18443;SDS011;9350;53.176;8.194;2023-05-19T13:50:23;3.78;;;1.70;;
18443;SDS011;9350;53.176;8.194;2023-05-19T13:52:50;1.67;;;1.58;;
18443;SDS011;9350;53.176;8.194;2023-05-19T13:55:19;3.28;;;1.50;;
18443;SDS011;9350;53.176;8.194;2023-05-19T13:57:47;1.92;;;1.38;;
18443;SDS011;9350;53.176;8.194;2023-05-19T14:00:14;2.13;;;1.58;;
18443;SDS011;9350;53.176;8.194;2023-05-19T14:02:42;2.50;;;1.70;;
18443;SDS011;9350;53.176;8.194;2023-05-19T14:05:08;3.22;;;1.63;;
18443;SDS011;9350;53.176;8.194;2023-05-19T14:07:35;3.90;;;1.80;;
18443;SDS011;9350;53.176;8.194;2023-05-19T14:10:02;2.83;;;1.63;;
18443;SDS011;9350;53.176;8.194;2023-05-19T14:12:32;2.50;;;1.77;;
18443;SDS011;9350;53.176;8.194;2023-05-19T14:15:00;4.97;;;1.70;;
18443;SDS011;9350;53.176;8.194;2023-05-19T14:17:27;5.47;;;1.80;;
18443;SDS011;9350;53.176;8.194;2023-05-19T14:19:53;4.57;;;1.90;;
18443;SDS011;9350;53.176;8.194;2023-05-19T14:22:20;3.20;;;1.55;;
18443;SDS011;9350;53.176;8.194;2023-05-19T14:24:47;2.97;;;1.75;;
18443;SDS011;9350;53.176;8.194;2023-05-19T14:27:14;12.57;;;1.55;;
18443;SDS011;9350;53.176;8.194;2023-05-19T14:29:42;3.20;;;1.75;;
18443;SDS011;9350;53.176;8.194;2023-05-19T14:32:09;2.15;;;1.67;;
18443;SDS011;9350;53.176;8.194;2023-05-19T14:34:35;5.47;;;1.92;;
18443;SDS011;9350;53.176;8.194;2023-05-19T14:37:02;4.70;;;1.80;;
18443;SDS011;9350;53.176;8.194;2023-05-19T14:39:29;2.75;;;1.77;;
18443;SDS011;9350;53.176;8.194;2023-05-19T14:41:56;4.25;;;1.45;;
18443;SDS011;9350;53.176;8.194;2023-05-19T14:44:28;3.50;;;1.70;;
18443;SDS011;9350;53.176;8.194;2023-05-19T14:46:58;6.82;;;1.83;;
18443;SDS011;9350;53.176;8.194;2023-05-19T14:49:25;2.70;;;1.52;;
18443;SDS011;9350;53.176;8.194;2023-05-19T14:51:51;8.27;;;1.98;;
18443;SDS011;9350;53.176;8.194;2023-05-19T14:54:18;3.30;;;1.80;;
18443;SDS011;9350;53.176;8.194;2023-05-19T14:56:45;3.33;;;1.70;;
18443;SDS011;9350;53.176;8.194;2023-05-19T14:59:12;5.70;;;1.52;;
18443;SDS011;9350;53.176;8.194;2023-05-19T15:01:38;4.57;;;1.83;;
18443;SDS011;9350;53.176;8.194;2023-05-19T15:04:06;3.60;;;1.85;;
18443;SDS011;9350;53.176;8.194;2023-05-19T15:06:33;2.88;;;1.50;;
18443;SDS011;9350;53.176;8.194;2023-05-19T15:09:00;4.28;;;1.63;;
18443;SDS011;9350;53.176;8.194;2023-05-19T15:11:26;5.07;;;1.88;;
18443;SDS011;9350;53.176;8.194;2023-05-19T15:13:54;4.93;;;1.90;;
18443;SDS011;9350;53.176;8.194;2023-05-19T15:16:20;2.90;;;1.85;;
18443;SDS011;9350;53.176;8.194;2023-05-19T15:18:47;4.65;;;1.75;;
18443;SDS011;9350;53.176;8.194;2023-05-19T15:21:16;2.83;;;1.50;;
18443;SDS011;9350;53.176;8.194;2023-05-19T15:23:43;4.75;;;1.88;;